Time;durP1;ratioP1;P1;durP2;ratioP2;P2;SDS_P1;SDS_P2;PMS_P1;PMS_P2;Temp;Humidity;BMP_temperature;BMP_pressure;BME280_temperature;BME280_humidity;BME280_pressure;Samples;Min_cycle;Max_cycle;Signal;HPM_P1;HPM_P2
2021/12/21 00:02:23;;;;;;;13.53;8.67;;;;;;;1.48;100.00;102918.66;5012056;28;20446;-72
2021/12/21 00:04:49;;;;;;;12.13;7.80;;;;;;;1.11;100.00;102913.69;5008176;28;20208;-70
2021/12/21 00:07:14;;;;;;;17.40;8.77;;;;;;;0.74;100.00;102879.66;5011917;28;21011;-70
2021/12/21 00:09:40;;;;;;;15.50;8.63;;;;;;;0.84;100.00;102892.28;5012901;28;20191;-70
2021/12/21 00:12:06;;;;;;;22.90;9.43;;;;;;;0.94;100.00;102897.91;5010584;28;20645;-71
2021/12/21 00:14:43;;;;;;;18.90;9.90;;;;;;;0.82;100.00;102840.47;5013452;28;20211;-70
2021/12/21 00:17:19;;;;;;;17.70;9.40;;;;;;;0.74;100.00;102874.38;5011161;28;20447;-72
2021/12/21 00:20:50;;;;;;;22.07;9.43;;;;;;;0.85;100.00;102879.94;5013386;28;20913;-71
2021/12/21 00:25:30;;;;;;;17.60;9.20;;;;;;;0.65;100.00;102846.69;4988645;28;20507;-71
2021/12/21 00:27:55;;;;;;;14.73;7.77;;;;;;;0.79;100.00;102918.09;5014790;28;21118;-71
2021/12/21 00:30:22;;;;;;;16.47;9.27;;;;;;;0.26;100.00;102820.66;5008722;28;20200;-71
2021/12/21 00:32:48;;;;;;;15.60;8.47;;;;;;;0.89;100.00;102882.28;5012748;28;20261;-71
2021/12/21 00:35:13;;;;;;;16.17;7.87;;;;;;;1.00;100.00;102909.94;5007534;28;21007;-71
2021/12/21 00:37:41;;;;;;;16.97;8.40;;;;;;;0.70;100.00;102860.50;5009232;28;20187;-71
2021/12/21 00:40:08;;;;;;;18.57;7.40;;;;;;;0.68;100.00;102891.44;5010454;28;20190;-71
2021/12/21 00:42:34;;;;;;;16.13;7.40;;;;;;;0.92;100.00;102917.41;5014950;28;21221;-71
2021/12/21 00:44:59;;;;;;;15.97;7.30;;;;;;;0.46;100.00;102817.78;5017128;28;20454;-72
2021/12/21 00:47:24;;;;;;;11.60;6.83;;;;;;;0.81;100.00;102875.75;5018477;28;20212;-71
2021/12/21 00:49:58;;;;;;;14.07;6.77;;;;;;;0.83;100.00;102879.16;5016548;28;20183;-71
2021/12/21 00:52:24;;;;;;;16.13;7.47;;;;;;;0.70;100.00;102854.38;5011434;28;20855;-71
2021/12/21 00:54:49;;;;;;;11.73;6.40;;;;;;;0.25;100.00;102830.38;5013241;28;20458;-71
2021/12/21 00:57:15;;;;;;;14.03;6.43;;;;;;;0.76;100.00;102913.00;5012832;28;20344;-71
2021/12/21 00:59:40;;;;;;;13.00;6.60;;;;;;;0.74;100.00;102851.47;5016131;28;20191;-71
2021/12/21 01:02:06;;;;;;;11.80;6.13;;;;;;;0.65;100.00;102873.94;5009192;28;20188;-71
2021/12/21 01:04:37;;;;;;;11.57;5.93;;;;;;;0.69;100.00;102864.06;5011124;28;20203;-71
2021/12/21 01:15:27;;;;;;;12.83;6.10;;;;;;;0.39;100.00;102814.66;5020999;28;21625;-71
2021/12/21 01:20:36;;;;;;;9.23;5.47;;;;;;;0.76;100.00;102883.09;5020115;28;20441;-71
2021/12/21 01:35:46;;;;;;;7.23;5.00;;;;;;;0.81;100.00;102903.03;5021269;28;20437;-71
2021/12/21 01:38:29;;;;;;;13.83;5.33;;;;;;;0.57;100.00;102868.22;5021472;28;20176;-71
2021/12/21 01:51:19;;;;;;;10.40;4.77;;;;;;;0.46;100.00;102852.13;5021594;28;20445;-71
2021/12/21 01:53:45;;;;;;;12.03;4.63;;;;;;;0.89;100.00;102847.09;5022580;28;20562;-71
2021/12/21 01:56:11;;;;;;;8.90;4.40;;;;;;;0.92;100.00;102859.28;5015695;28;20443;-71
2021/12/21 01:58:39;;;;;;;8.57;5.20;;;;;;;0.92;100.00;102868.06;5019210;28;20444;-71
2021/12/21 02:01:10;;;;;;;7.70;4.10;;;;;;;0.56;100.00;102821.66;5023674;28;20188;-71
2021/12/21 02:03:36;;;;;;;10.33;4.30;;;;;;;0.77;100.00;102848.66;5017932;28;20917;-70
2021/12/21 02:06:03;;;;;;;13.83;3.87;;;;;;;0.62;100.00;102800.16;5020298;28;20458;-71
2021/12/21 02:08:29;;;;;;;8.97;4.10;;;;;;;1.08;100.00;102866.28;5018516;28;20449;-71
2021/12/21 02:10:59;;;;;;;10.37;4.03;;;;;;;-0.54;100.00;102638.56;5017342;28;21146;-71
2021/12/21 02:13:30;;;;;;;7.43;3.80;;;;;;;1.08;100.00;102874.19;5021428;28;21028;-71
2021/12/21 02:15:55;;;;;;;10.43;4.20;;;;;;;0.93;100.00;102875.06;5016420;28;20434;-71
2021/12/21 02:21:00;;;;;;;9.37;4.00;;;;;;;0.45;100.00;102782.63;5020889;28;20652;-71
2021/12/21 02:23:35;;;;;;;14.73;4.10;;;;;;;0.83;100.00;102831.59;5017241;28;20838;-70
2021/12/21 02:31:04;;;;;;;9.17;3.70;;;;;;;0.70;100.00;102825.31;5014053;28;21025;-71
2021/12/21 02:33:30;;;;;;;8.23;3.93;;;;;;;0.89;100.00;102865.59;5019819;28;20576;-71
2021/12/21 02:35:57;;;;;;;8.37;4.10;;;;;;;0.59;100.00;102823.28;5019400;28;20238;-71
2021/12/21 02:38:23;;;;;;;13.10;4.47;;;;;;;0.50;100.00;102814.06;5018520;28;20599;-71
2021/12/21 02:40:49;;;;;;;8.90;3.90;;;;;;;0.48;100.00;102778.97;5013533;28;20473;-70
2021/12/21 02:43:15;;;;;;;8.70;3.73;;;;;;;0.36;100.00;102759.38;5029620;28;20581;-71
2021/12/21 02:45:42;;;;;;;9.93;4.20;;;;;;;0.76;100.00;102827.63;5021470;28;20471;-70
2021/12/21 02:48:08;;;;;;;9.77;3.70;;;;;;;0.64;100.00;102816.78;5021465;28;20481;-71
2021/12/21 02:50:36;;;;;;;7.80;3.67;;;;;;;0.94;100.00;102863.56;5014264;28;20995;-71
2021/12/21 02:53:02;;;;;;;8.90;4.00;;;;;;;0.93;100.00;102851.28;5017209;28;20443;-71
2021/12/21 02:55:28;;;;;;;8.30;3.80;;;;;;;0.41;100.00;102785.53;5017694;28;20472;-71
2021/12/21 02:57:55;;;;;;;8.67;4.07;;;;;;;0.81;100.00;102850.19;5016992;28;20451;-71
2021/12/21 03:00:20;;;;;;;7.90;3.80;;;;;;;-0.60;100.00;102598.50;5019617;28;20442;-71
2021/12/21 03:02:46;;;;;;;5.80;3.40;;;;;;;0.14;100.00;102730.66;5016752;28;20439;-71
2021/12/21 03:05:11;;;;;;;9.10;4.33;;;;;;;0.43;100.00;102802.13;5017576;28;20236;-73
2021/12/21 03:10:16;;;;;;;7.07;3.27;;;;;;;0.46;100.00;102820.44;5022146;28;20552;-71
2021/12/21 03:15:30;;;;;;;11.80;3.30;;;;;;;0.74;100.00;102840.91;5018599;28;20507;-71
2021/12/21 03:17:57;;;;;;;8.50;3.77;;;;;;;0.77;100.00;102835.44;5021938;28;21102;-71
2021/12/21 03:20:23;;;;;;;9.70;3.97;;;;;;;0.63;100.00;102811.59;5019919;28;20819;-70
2021/12/21 03:22:51;;;;;;;8.23;3.63;;;;;;;0.68;100.00;102839.44;5022324;28;20457;-70
2021/12/21 03:25:17;;;;;;;9.43;3.80;;;;;;;0.71;100.00;102838.44;5032309;28;20473;-71
2021/12/21 03:27:43;;;;;;;6.63;3.00;;;;;;;0.77;100.00;102829.31;5018651;28;20487;-70
2021/12/21 03:30:11;;;;;;;9.97;3.60;;;;;;;0.89;100.00;102818.03;5023024;28;20438;-70
2021/12/21 03:32:37;;;;;;;8.63;3.97;;;;;;;-0.07;100.00;102730.06;5019323;28;20551;-71
2021/12/21 03:35:03;;;;;;;7.50;3.60;;;;;;;0.12;100.00;102761.59;5018643;28;20466;-71
2021/12/21 03:37:28;;;;;;;9.13;3.57;;;;;;;0.40;100.00;102776.75;5023688;28;20603;-71
2021/12/21 03:39:55;;;;;;;8.90;4.10;;;;;;;-0.73;100.00;102608.84;5021004;28;27014;-71
2021/12/21 03:42:23;;;;;;;12.47;4.07;;;;;;;-0.16;100.00;102706.81;5018144;28;20177;-71
2021/12/21 03:44:49;;;;;;;8.70;3.10;;;;;;;0.53;100.00;102803.34;5023503;28;20449;-72
2021/12/21 03:47:16;;;;;;;6.70;3.20;;;;;;;0.72;100.00;102823.41;5022514;28;20838;-72
2021/12/21 03:52:20;;;;;;;14.87;3.57;;;;;;;0.71;100.00;102834.94;5019061;28;20437;-71
2021/12/21 03:54:51;;;;;;;8.50;3.10;;;;;;;0.79;100.00;102830.94;5021069;28;20888;-71
2021/12/21 03:57:17;;;;;;;7.97;3.17;;;;;;;0.67;100.00;102834.25;5018864;28;20423;-71
2021/12/21 03:59:44;;;;;;;8.33;3.27;;;;;;;0.45;100.00;102774.69;5015476;28;20443;-71
2021/12/21 04:02:12;;;;;;;9.40;3.10;;;;;;;0.51;100.00;102810.47;5037403;28;20199;-71
2021/12/21 04:04:39;;;;;;;11.40;3.33;;;;;;;0.36;100.00;102750.63;5024359;28;20459;-71
2021/12/21 04:07:05;;;;;;;7.27;2.50;;;;;;;0.10;100.00;102741.50;5023552;28;20521;-71
2021/12/21 04:09:30;;;;;;;6.30;3.23;;;;;;;0.70;100.00;102822.69;5023241;28;20438;-71
2021/12/21 04:11:55;;;;;;;8.07;3.00;;;;;;;-0.28;100.00;102681.97;5023893;28;20949;-71
2021/12/21 04:14:21;;;;;;;10.60;3.50;;;;;;;0.59;100.00;102825.91;5018291;28;20208;-71
2021/12/21 04:16:47;;;;;;;5.30;2.70;;;;;;;0.21;100.00;102749.69;5018775;28;20257;-71
2021/12/21 04:19:13;;;;;;;6.50;3.00;;;;;;;0.59;100.00;102815.34;5021256;28;20181;-71
2021/12/21 04:21:39;;;;;;;12.40;3.10;;;;;;;0.03;100.00;102714.59;5017881;28;20442;-70
2021/12/21 04:24:06;;;;;;;5.80;3.30;;;;;;;-0.01;100.00;102711.25;5019326;28;20469;-71
2021/12/21 04:26:31;;;;;;;6.20;3.17;;;;;;;0.26;100.00;102786.34;5018719;28;20498;-70
2021/12/21 04:28:57;;;;;;;9.07;2.97;;;;;;;0.36;100.00;102809.53;5020370;28;20525;-71
2021/12/21 04:31:23;;;;;;;7.13;3.07;;;;;;;-0.12;100.00;102776.09;5016874;28;20434;-71
2021/12/21 04:33:48;;;;;;;4.73;3.17;;;;;;;-0.25;100.00;102746.88;5016233;28;20575;-71
2021/12/21 04:36:14;;;;;;;7.50;2.90;;;;;;;-0.01;100.00;102776.38;5020553;28;20267;-71
2021/12/21 04:38:44;;;;;;;6.73;3.10;;;;;;;-0.01;100.00;102800.13;5024913;28;20179;-71
2021/12/21 04:43:46;;;;;;;5.13;3.17;;;;;;;0.22;100.00;102826.13;5021092;28;20470;-71
2021/12/21 04:46:12;;;;;;;5.87;3.00;;;;;;;-0.01;100.00;102769.31;5020755;28;20517;-71
2021/12/21 04:48:38;;;;;;;7.40;2.97;;;;;;;0.26;100.00;102824.19;5018447;28;20199;-71
2021/12/21 04:51:03;;;;;;;14.10;3.03;;;;;;;0.02;100.00;102792.03;5022762;28;20644;-70
2021/12/21 04:53:29;;;;;;;5.23;3.07;;;;;;;-0.37;100.00;102735.22;5022541;28;20548;-70
2021/12/21 04:55:55;;;;;;;8.03;3.73;;;;;;;-0.17;100.00;102779.00;5017136;28;20814;-70
2021/12/21 04:58:21;;;;;;;4.47;2.90;;;;;;;-0.27;100.00;102770.69;5016117;28;20184;-70
2021/12/21 05:00:47;;;;;;;3.60;2.57;;;;;;;-0.78;100.00;102722.41;5021757;28;21107;-70
2021/12/21 05:03:13;;;;;;;8.20;3.50;;;;;;;-0.35;100.00;102812.44;5024657;28;20443;-70
2021/12/21 05:05:39;;;;;;;6.57;2.80;;;;;;;-0.28;100.00;102762.88;5023534;28;20491;-70
2021/12/21 05:08:19;;;;;;;6.40;3.40;;;;;;;0.10;100.00;102810.94;5019274;28;20479;-71
2021/12/21 05:10:48;;;;;;;8.40;3.53;;;;;;;-0.08;100.00;102815.44;5020187;28;20672;-70
2021/12/21 05:13:16;;;;;;;7.20;3.80;;;;;;;0.10;100.00;102818.88;5020725;28;20434;-70
2021/12/21 05:15:42;;;;;;;6.27;3.00;;;;;;;-0.08;100.00;102825.97;5015815;28;20438;-70
2021/12/21 05:18:09;;;;;;;4.03;2.67;;;;;;;-0.26;100.00;102822.53;5020782;28;20442;-70
2021/12/21 05:20:36;;;;;;;4.43;2.90;;;;;;;-0.82;100.00;102728.75;5017741;28;20826;-70
2021/12/21 05:23:01;;;;;;;5.97;3.63;;;;;;;-0.32;100.00;102830.75;5023899;28;20439;-71
2021/12/21 05:25:27;;;;;;;6.47;3.80;;;;;;;-0.37;100.00;102800.28;5024735;28;20466;-70
2021/12/21 05:27:52;;;;;;;5.10;3.27;;;;;;;-0.77;100.00;102726.75;5026462;28;20200;-70
2021/12/21 05:30:17;;;;;;;8.20;4.03;;;;;;;-0.28;100.00;102813.84;5024778;28;20897;-71
2021/12/21 05:32:43;;;;;;;7.77;3.90;;;;;;;-0.38;100.00;102777.47;5021634;28;20669;-70
2021/12/21 05:35:09;;;;;;;8.20;3.60;;;;;;;-0.17;100.00;102815.91;5018495;28;20229;-71
2021/12/21 05:37:38;;;;;;;7.03;3.50;;;;;;;-0.48;100.00;102806.94;5018471;28;20310;-70
2021/12/21 05:40:16;;;;;;;8.40;3.33;;;;;;;-1.02;100.00;102721.00;5022059;28;20441;-70
2021/12/21 05:42:43;;;;;;;6.53;4.10;;;;;;;-0.55;100.00;102804.69;5022595;28;21155;-70
2021/12/21 05:45:11;;;;;;;7.53;3.97;;;;;;;-0.61;100.00;102770.75;5015074;28;20470;-71
2021/12/21 05:47:37;;;;;;;5.00;3.40;;;;;;;-0.47;100.00;102810.44;5016808;28;22390;-71
2021/12/21 05:50:08;;;;;;;4.47;3.60;;;;;;;-0.59;100.00;102767.09;5020451;28;20447;-71
2021/12/21 05:52:34;;;;;;;5.20;3.27;;;;;;;-1.78;100.00;102594.91;5023447;28;20600;-71
2021/12/21 05:54:59;;;;;;;4.50;3.40;;;;;;;-0.58;100.00;102778.50;5023431;28;20619;-73
2021/12/21 05:57:25;;;;;;;5.73;2.90;;;;;;;-1.03;100.00;102749.13;5022309;28;20184;-73
2021/12/21 05:59:50;;;;;;;4.83;3.17;;;;;;;-0.82;100.00;102752.47;5023693;28;20187;-73
2021/12/21 06:02:17;;;;;;;6.87;3.67;;;;;;;-1.07;100.00;102712.47;5019563;28;20245;-73
2021/12/21 06:04:43;;;;;;;4.17;3.00;;;;;;;-1.28;100.00;102728.41;5025859;28;20203;-73
2021/12/21 06:07:08;;;;;;;5.83;3.63;;;;;;;-1.34;100.00;102728.72;5025303;28;20463;-72
2021/12/21 06:09:34;;;;;;;3.23;2.93;;;;;;;-1.31;100.00;102725.94;5027662;28;20994;-72
2021/12/21 06:12:11;;;;;;;4.13;3.40;;;;;;;-0.89;100.00;102785.34;5025767;28;20184;-72
2021/12/21 06:25:51;;;;;;;3.90;3.50;;;;;;;-1.31;100.00;102797.03;4990545;28;20435;-71
2021/12/21 06:28:17;;;;;;;7.60;3.60;;;;;;;-1.14;100.00;102830.44;5014648;28;20523;-71
2021/12/21 06:30:43;;;;;;;3.87;3.50;;;;;;;-0.74;100.00;102818.81;5017599;28;20526;-72
2021/12/21 06:33:09;;;;;;;5.50;3.87;;;;;;;-0.54;100.00;102832.78;5010724;28;20970;-72
2021/12/21 06:35:35;;;;;;;4.97;3.47;;;;;;;-0.80;100.00;102776.97;5014629;28;20208;-71
2021/12/21 06:38:02;;;;;;;5.50;2.93;;;;;;;-0.43;100.00;102832.22;5020439;28;21242;-72
2021/12/21 06:40:28;;;;;;;3.77;3.23;;;;;;;-1.29;100.00;102741.69;5022657;28;20449;-72
2021/12/21 06:42:54;;;;;;;3.97;3.10;;;;;;;-0.87;100.00;102838.78;5018836;28;20453;-71
2021/12/21 06:45:31;;;;;;;5.20;3.57;;;;;;;-0.53;100.00;102837.09;5021113;28;20461;-72
2021/12/21 06:53:26;;;;;;;6.20;3.80;;;;;;;-1.04;100.00;102793.97;5015926;28;20460;-70
2021/12/21 06:55:52;;;;;;;6.03;4.20;;;;;;;-1.56;100.00;102742.09;5020509;28;20667;-71
2021/12/21 06:58:18;;;;;;;7.57;3.80;;;;;;;-1.29;100.00;102783.81;5016668;28;20469;-71
2021/12/21 07:00:44;;;;;;;4.60;3.37;;;;;;;-1.46;100.00;102745.13;5023497;28;20177;-71
2021/12/21 07:03:12;;;;;;;3.87;3.27;;;;;;;-1.20;100.00;102764.91;5010440;28;21018;-71
2021/12/21 07:05:39;;;;;;;5.87;4.60;;;;;;;-1.36;100.00;102764.78;5012861;28;20438;-72
2021/12/21 07:08:08;;;;;;;4.10;3.20;;;;;;;-0.76;100.00;102831.19;5015075;28;20445;-71
2021/12/21 07:10:34;;;;;;;3.67;3.30;;;;;;;-0.81;100.00;102835.88;5015460;28;20445;-72
2021/12/21 07:18:31;;;;;;;6.47;4.63;;;;;;;-0.99;100.00;102806.00;5016926;28;20437;-71
2021/12/21 07:20:59;;;;;;;5.77;3.73;;;;;;;-1.17;100.00;102804.25;5022484;28;20439;-71
2021/12/21 07:23:24;;;;;;;7.33;5.07;;;;;;;-1.12;100.00;102819.84;5020680;28;20446;-72
2021/12/21 07:25:50;;;;;;;8.23;4.77;;;;;;;-1.40;100.00;102779.03;5020243;28;20814;-71
2021/12/21 07:28:16;;;;;;;6.23;4.60;;;;;;;-2.12;100.00;102654.38;5012347;28;20216;-71
2021/12/21 07:30:41;;;;;;;7.33;4.73;;;;;;;-1.52;100.00;102777.84;5006887;28;20602;-71
2021/12/21 07:33:08;;;;;;;5.90;3.90;;;;;;;-1.80;100.00;102725.66;5018858;28;20438;-72
2021/12/21 07:35:33;;;;;;;6.67;4.10;;;;;;;-1.00;100.00;102849.06;5025017;28;20567;-72
2021/12/21 07:38:00;;;;;;;6.90;4.17;;;;;;;-1.70;100.00;102723.47;5013687;28;20450;-72
2021/12/21 07:40:25;;;;;;;5.57;4.00;;;;;;;-0.90;100.00;102812.59;5016239;28;20191;-72
2021/12/21 07:42:50;;;;;;;5.60;3.90;;;;;;;-1.56;100.00;102712.25;5024898;28;20490;-71
2021/12/21 07:45:16;;;;;;;6.33;4.57;;;;;;;-1.29;100.00;102763.59;5010553;28;20310;-71
2021/12/21 07:47:42;;;;;;;5.67;4.73;;;;;;;-1.26;100.00;102804.72;5013496;28;20228;-71
2021/12/21 07:50:08;;;;;;;9.43;5.00;;;;;;;-1.10;100.00;102808.28;5008812;28;20187;-71
2021/12/21 07:52:33;;;;;;;6.30;4.93;;;;;;;-0.80;100.00;102813.84;5009750;28;20573;-72
2021/12/21 07:54:59;;;;;;;8.73;6.30;;;;;;;-1.22;100.00;102766.75;5017809;28;20469;-71
2021/12/21 07:57:24;;;;;;;10.83;6.90;;;;;;;-1.91;100.00;102710.41;5017070;28;20185;-71
2021/12/21 07:59:50;;;;;;;8.67;5.83;;;;;;;-1.64;100.00;102837.19;5004162;28;20191;-72
2021/12/21 08:02:15;;;;;;;8.40;5.60;;;;;;;-0.77;100.00;102836.56;5024215;28;21255;-71
2021/12/21 08:04:43;;;;;;;9.73;5.97;;;;;;;-1.13;100.00;102787.38;5014599;28;20228;-71
2021/12/21 08:07:13;;;;;;;9.07;6.30;;;;;;;-0.99;100.00;102837.59;5024427;28;20228;-71
2021/12/21 08:09:40;;;;;;;7.80;6.57;;;;;;;-1.16;100.00;102782.25;5028702;28;20430;-71
2021/12/21 08:12:17;;;;;;;12.50;5.80;;;;;;;-0.84;100.00;102841.28;5019346;28;20435;-72
2021/12/21 08:14:51;;;;;;;10.53;7.53;;;;;;;-0.88;100.00;102812.53;5007761;28;20474;-71
2021/12/21 08:17:18;;;;;;;10.70;6.33;;;;;;;-1.27;100.00;102743.31;5019284;28;20531;-70
2021/12/21 08:19:44;;;;;;;19.50;7.53;;;;;;;-0.89;100.00;102806.41;5022525;28;20465;-71
2021/12/21 08:22:12;;;;;;;13.17;7.10;;;;;;;-1.21;100.00;102789.56;5011245;28;21467;-70
2021/12/21 08:24:38;;;;;;;13.90;7.03;;;;;;;-1.51;100.00;102729.53;5013572;28;20450;-71
2021/12/21 08:27:04;;;;;;;10.03;5.87;;;;;;;-1.11;100.00;102726.75;5025439;28;20536;-71
2021/12/21 08:29:30;;;;;;;10.37;6.70;;;;;;;-1.09;100.00;102720.47;5026104;28;20977;-70
2021/12/21 08:31:55;;;;;;;13.83;7.53;;;;;;;-0.68;100.00;102799.19;5024746;28;20387;-69
2021/12/21 08:34:21;;;;;;;15.33;7.50;;;;;;;-0.88;100.00;102796.72;5021378;28;21949;-70
2021/12/21 08:36:47;;;;;;;15.57;9.70;;;;;;;-2.41;100.00;102591.81;5026430;28;20180;-71
2021/12/21 08:39:12;;;;;;;16.57;8.60;;;;;;;-0.92;100.00;102790.75;5023515;28;20187;-72
2021/12/21 08:41:42;;;;;;;13.47;8.87;;;;;;;-0.70;100.00;102788.72;5018047;28;20184;-71
2021/12/21 08:44:10;;;;;;;16.57;7.83;;;;;;;-0.41;100.00;102810.09;5016936;28;20805;-70
2021/12/21 08:46:36;;;;;;;17.27;8.30;;;;;;;-0.37;100.00;102787.94;5020927;28;20832;-69
2021/12/21 08:49:02;;;;;;;16.20;8.80;;;;;;;-0.33;100.00;102815.00;5011100;28;20450;-71
2021/12/21 08:51:27;;;;;;;11.97;7.13;;;;;;;-0.45;100.00;102782.22;5015321;28;20540;-71
2021/12/21 08:53:53;;;;;;;16.03;7.50;;;;;;;-0.83;100.00;102736.75;5012698;28;20472;-71
2021/12/21 08:56:18;;;;;;;15.13;7.77;;;;;;;-0.94;100.00;102687.22;5009758;28;20751;-70
2021/12/21 08:58:44;;;;;;;12.50;6.93;;;;;;;-0.51;100.00;102780.75;5013083;28;20550;-71
2021/12/21 09:01:09;;;;;;;13.43;7.47;;;;;;;-0.29;100.00;102756.75;5009344;28;20210;-71
2021/12/21 09:03:35;;;;;;;14.60;6.80;;;;;;;-0.53;100.00;102718.47;5004673;28;25160;-70
2021/12/21 09:06:01;;;;;;;12.23;6.20;;;;;;;-0.60;100.00;102703.94;5011234;28;20223;-70
2021/12/21 09:08:27;;;;;;;16.93;7.70;;;;;;;-0.33;100.00;102747.28;5014296;28;20184;-73
2021/12/21 09:10:52;;;;;;;13.83;6.70;;;;;;;-0.02;100.00;102798.41;5024242;28;20550;-70
2021/12/21 09:13:18;;;;;;;9.90;6.13;;;;;;;-0.07;100.00;102834.75;5022548;28;20439;-71
2021/12/21 09:15:44;;;;;;;11.10;6.03;;;;;;;-0.44;100.00;102717.16;5017710;28;20188;-70
2021/12/21 09:18:10;;;;;;;12.40;6.23;;;;;;;0.02;100.00;102828.13;5018245;28;20269;-70
2021/12/21 09:20:36;;;;;;;7.60;5.90;;;;;;;-0.18;100.00;102755.31;5014636;28;20446;-70
2021/12/21 09:23:01;;;;;;;12.33;6.30;;;;;;;0.19;100.00;102796.41;5015971;28;20191;-69
2021/12/21 09:25:29;;;;;;;7.77;5.10;;;;;;;-0.45;100.00;102703.13;5018220;28;20215;-70
2021/12/21 09:27:56;;;;;;;10.17;5.70;;;;;;;0.41;100.00;102851.53;5025502;28;20253;-70
2021/12/21 09:30:23;;;;;;;10.10;5.70;;;;;;;-0.20;100.00;102738.72;5016541;28;20442;-70
2021/12/21 09:32:51;;;;;;;8.07;5.13;;;;;;;-0.34;100.00;102687.59;5022676;28;20434;-71
2021/12/21 09:35:17;;;;;;;10.93;5.70;;;;;;;0.48;100.00;102780.75;5018236;28;21493;-70
2021/12/21 09:37:44;;;;;;;12.33;5.90;;;;;;;0.28;100.00;102764.22;5024984;28;20454;-70
2021/12/21 09:40:14;;;;;;;10.83;5.40;;;;;;;0.77;100.00;102834.59;5015787;28;20558;-71
2021/12/21 09:42:39;;;;;;;9.83;5.40;;;;;;;0.78;100.00;102810.75;5015448;28;20461;-71
2021/12/21 09:45:06;;;;;;;11.63;6.30;;;;;;;0.57;100.00;102788.16;5012184;28;20469;-70
2021/12/21 09:47:49;;;;;;;7.40;4.80;;;;;;;0.52;100.00;102783.16;5020125;28;20771;-72
2021/12/21 09:50:19;;;;;;;8.77;4.90;;;;;;;0.43;100.00;102786.28;5033705;28;20459;-70
2021/12/21 09:52:45;;;;;;;8.70;5.10;;;;;;;0.88;100.00;102819.84;5011715;28;20442;-71
2021/12/21 09:55:15;;;;;;;9.33;5.27;;;;;;;0.95;100.00;102832.69;5024443;28;20476;-70
2021/12/21 09:57:41;;;;;;;8.53;4.63;;;;;;;0.44;100.00;102724.66;5019033;28;20450;-71
2021/12/21 10:00:32;;;;;;;15.47;5.10;;;;;;;0.94;100.00;102775.50;5001883;28;20927;-71
2021/12/21 10:03:03;;;;;;;9.70;4.90;;;;;;;0.98;100.00;102809.59;5014698;28;20175;-71
2021/12/21 10:05:30;;;;;;;6.73;4.17;;;;;;;1.13;100.00;102819.28;5014776;28;21194;-71
2021/12/21 10:08:05;;;;;;;9.33;4.70;;;;;;;1.10;100.00;102826.56;5016016;28;20466;-71
2021/12/21 10:10:40;;;;;;;10.87;4.80;;;;;;;0.94;100.00;102734.09;5016184;28;20481;-71
2021/12/21 10:13:08;;;;;;;9.70;5.10;;;;;;;-0.14;100.00;102594.19;5015348;28;20511;-71
2021/12/21 10:15:39;;;;;;;8.47;4.77;;;;;;;1.44;100.00;102851.00;5016750;28;20426;-71
2021/12/21 10:18:04;;;;;;;9.53;4.30;;;;;;;1.88;100.00;102843.09;5017021;28;20552;-71
2021/12/21 10:20:45;;;;;;;8.77;4.30;;;;;;;2.09;100.00;102817.09;5014138;28;21156;-70
2021/12/21 10:23:20;;;;;;;10.07;4.27;;;;;;;2.46;100.00;102828.88;5018382;28;20191;-70
2021/12/21 10:25:51;;;;;;;8.27;4.33;;;;;;;2.11;100.00;102839.03;5010980;28;20453;-70
2021/12/21 10:28:35;;;;;;;12.37;5.03;;;;;;;1.76;100.00;102807.59;5004981;28;20437;-70
2021/12/21 10:31:10;;;;;;;8.70;4.60;;;;;;;2.06;100.00;102840.25;5008481;28;20560;-68
2021/12/21 10:33:37;;;;;;;14.20;4.57;;;;;;;2.61;100.00;102795.25;5016095;28;20488;-69
2021/12/21 10:36:06;;;;;;;11.03;4.40;;;;;;;3.05;100.00;102814.50;5023457;28;20438;-70
2021/12/21 10:38:37;;;;;;;9.60;4.20;;;;;;;2.81;100.00;102750.72;5022564;28;20536;-69
2021/12/21 10:41:13;;;;;;;7.00;3.70;;;;;;;3.15;100.00;102829.72;5025786;28;20433;-69
2021/12/21 10:43:39;;;;;;;9.70;4.23;;;;;;;2.91;100.00;102808.31;5031821;28;20584;-69
2021/12/21 10:46:05;;;;;;;8.33;4.07;;;;;;;3.18;100.00;102833.94;5019054;28;20480;-71
2021/12/21 10:48:35;;;;;;;12.83;3.60;;;;;;;3.49;100.00;102832.75;5018783;28;20430;-70
2021/12/21 10:51:01;;;;;;;14.37;4.37;;;;;;;3.38;100.00;102822.88;5027906;28;20460;-71
2021/12/21 10:53:27;;;;;;;12.07;3.97;;;;;;;3.14;100.00;102790.03;5028475;28;20549;-71
2021/12/21 10:56:06;;;;;;;13.03;4.40;;;;;;;3.32;100.00;102825.94;5030851;28;20922;-71
2021/12/21 10:58:37;;;;;;;8.47;4.43;;;;;;;3.25;100.00;102739.78;5019541;28;20183;-70
2021/12/21 11:01:06;;;;;;;6.63;3.40;;;;;;;3.63;100.00;102818.56;5023786;28;20699;-69
2021/12/21 11:03:44;;;;;;;10.80;3.33;;;;;;;3.32;100.00;102769.38;5020966;28;20462;-69
2021/12/21 11:06:23;;;;;;;6.27;3.40;;;;;;;3.59;100.00;102780.78;5026995;28;20469;-69
2021/12/21 11:08:53;;;;;;;7.23;3.63;;;;;;;3.59;100.00;102803.81;5023106;28;20430;-70
2021/12/21 11:11:28;;;;;;;7.07;3.27;;;;;;;3.58;100.00;102796.78;5021566;28;20493;-69
2021/12/21 11:14:08;;;;;;;8.60;3.77;;;;;;;3.60;100.00;102803.69;5016877;28;20492;-68
2021/12/21 11:16:43;;;;;;;8.00;3.30;;;;;;;3.72;100.00;102799.34;5016986;28;20450;-68
2021/12/21 11:19:11;;;;;;;6.67;3.30;;;;;;;3.50;100.00;102789.38;5027872;28;20429;-68
2021/12/21 11:21:46;;;;;;;11.07;5.07;;;;;;;4.03;100.00;102795.41;5013260;28;20438;-67
2021/12/21 11:24:14;;;;;;;10.00;3.80;;;;;;;3.75;100.00;102737.25;5027153;28;20515;-68
2021/12/21 11:26:43;;;;;;;6.60;3.43;;;;;;;3.74;100.00;102733.75;5015416;28;20833;-68
2021/12/21 11:29:15;;;;;;;6.97;3.60;;;;;;;4.05;100.00;102784.66;5017942;28;20466;-67
2021/12/21 11:31:44;;;;;;;7.93;3.50;;;;;;;3.79;100.00;102752.84;5010382;28;20441;-68
2021/12/21 11:34:17;;;;;;;5.77;3.00;;;;;;;3.82;100.00;102731.41;5022285;28;21285;-67
2021/12/21 11:39:33;;;;;;;5.53;2.63;;;;;;;4.07;100.00;102767.66;5024902;28;20846;-68
2021/12/21 11:42:05;;;;;;;5.33;3.30;;;;;;;4.20;100.00;102761.50;5016334;28;21459;-68
2021/12/21 11:44:52;;;;;;;7.47;3.17;;;;;;;4.42;100.00;102763.44;5023600;28;20466;-68
2021/12/21 11:47:37;;;;;;;5.90;2.57;;;;;;;4.22;100.00;102748.94;5027310;28;20450;-68
2021/12/21 11:50:09;;;;;;;4.60;2.70;;;;;;;4.36;100.00;102767.38;5028145;28;20443;-68
2021/12/21 11:52:52;;;;;;;5.87;2.50;;;;;;;4.44;100.00;102761.53;5021355;28;20442;-68
2021/12/21 11:55:21;;;;;;;6.00;3.10;;;;;;;4.35;100.00;102752.41;5030230;28;20525;-68
2021/12/21 11:57:53;;;;;;;9.20;3.23;;;;;;;4.15;100.00;102711.34;5030279;28;20423;-68
2021/12/21 12:00:28;;;;;;;4.40;2.77;;;;;;;4.49;100.00;102743.44;5019813;28;21164;-70
2021/12/21 12:03:06;;;;;;;10.40;3.30;;;;;;;4.15;100.00;102703.38;5016594;28;21202;-69
2021/12/21 12:05:34;;;;;;;6.83;3.43;;;;;;;4.69;100.00;102755.28;5018114;28;20429;-68
2021/12/21 12:08:04;;;;;;;6.33;3.50;;;;;;;4.58;100.00;102745.41;5027547;28;20911;-68
2021/12/21 12:10:31;;;;;;;8.37;3.57;;;;;;;4.56;100.00;102715.44;5027847;28;20434;-68
2021/12/21 12:13:07;;;;;;;6.03;3.10;;;;;;;4.29;100.00;102697.06;5019593;28;20438;-68
2021/12/21 12:16:06;;;;;;;9.30;3.37;;;;;;;4.04;100.00;102634.25;5009689;28;20435;-68
2021/12/21 12:18:35;;;;;;;8.00;3.40;;;;;;;4.63;100.00;102745.06;5016000;28;20439;-68
2021/12/21 12:21:30;;;;;;;4.60;2.93;;;;;;;4.76;100.00;102727.25;5019575;28;20448;-68
2021/12/21 12:24:00;;;;;;;7.33;2.40;;;;;;;4.68;100.00;102727.81;5009060;28;20469;-68
2021/12/21 12:26:38;;;;;;;12.13;3.63;;;;;;;4.49;100.00;102666.38;5020521;28;20467;-68
2021/12/21 12:29:19;;;;;;;6.20;2.57;;;;;;;4.50;100.00;102699.94;5022886;28;20570;-68
2021/12/21 12:32:07;;;;;;;3.67;2.30;;;;;;;4.71;100.00;102701.00;5020723;28;20511;-68
2021/12/21 12:34:36;;;;;;;5.37;2.47;;;;;;;4.69;100.00;102728.69;5010946;28;20525;-68
2021/12/21 12:37:20;;;;;;;4.00;2.30;;;;;;;4.70;100.00;102709.94;5018024;28;20461;-68
2021/12/21 12:39:51;;;;;;;6.20;2.40;;;;;;;4.43;100.00;102718.16;5013538;28;20433;-68
2021/12/21 12:42:23;;;;;;;5.90;2.77;;;;;;;4.37;100.00;102685.88;5014865;28;20473;-68
2021/12/21 12:45:02;;;;;;;4.87;2.47;;;;;;;4.39;100.00;102715.84;5015005;28;20462;-68
2021/12/21 12:47:28;;;;;;;4.70;2.70;;;;;;;4.49;100.00;102680.50;5021858;28;20561;-68